Time;durP1;ratioP1;P1;durP2;ratioP2;P2;SDS_P1;SDS_P2;PMS_P1;PMS_P2;Temp;Humidity;BMP_temperature;BMP_pressure;BME280_temperature;BME280_humidity;BME280_pressure;Samples;Min_cycle;Max_cycle;Signal;HPM_P1;HPM_P2
2024/04/11 00:02:09;;;;;;;2.63;0.43;;;14.50;56.80;;;;;;5484459;26;19999;-67
2024/04/11 00:04:35;;;;;;;0.88;0.40;;;14.50;56.70;;;;;;5482921;26;20013;-66
2024/04/11 00:07:01;;;;;;;2.45;0.40;;;14.50;56.70;;;;;;5475455;26;20078;-61
2024/04/11 00:09:28;;;;;;;1.77;1.02;;;14.50;56.70;;;;;;5482317;26;20033;-61
2024/04/11 00:11:53;;;;;;;5.05;1.13;;;14.60;56.80;;;;;;5475101;26;20012;-67
2024/04/11 00:14:20;;;;;;;2.28;0.52;;;14.50;56.90;;;;;;5482776;26;20369;-66
2024/04/11 00:16:46;;;;;;;1.17;0.40;;;14.50;57.00;;;;;;5482817;26;20020;-67
2024/04/11 00:19:12;;;;;;;0.65;0.50;;;14.50;57.00;;;;;;5484113;26;20002;-62
2024/04/11 00:21:38;;;;;;;0.50;0.50;;;14.60;56.90;;;;;;5473611;26;20468;-61
2024/04/11 00:24:05;;;;;;;0.80;0.40;;;14.60;57.00;;;;;;5481952;26;20017;-61
2024/04/11 00:26:30;;;;;;;1.85;0.40;;;14.60;57.00;;;;;;5480545;26;20009;-62
2024/04/11 00:28:56;;;;;;;3.92;0.95;;;14.50;57.00;;;;;;5477540;26;20006;-67
2024/04/11 00:31:23;;;;;;;3.20;0.70;;;14.60;57.00;;;;;;5478125;26;20471;-67
2024/04/11 00:33:55;;;;;;;2.92;0.60;;;14.60;57.00;;;;;;5471001;26;20070;-67
2024/04/11 00:36:24;;;;;;;0.25;0.25;;;14.60;57.00;;;;;;5483819;26;20013;-67
2024/04/11 00:38:51;;;;;;;2.40;0.50;;;14.50;57.00;;;;;;5480172;26;20010;-67
2024/04/11 00:41:21;;;;;;;3.17;0.50;;;14.50;57.00;;;;;;5479306;26;20357;-68
2024/04/11 00:43:47;;;;;;;2.65;0.40;;;14.50;57.00;;;;;;5484246;26;20010;-62
2024/04/11 00:46:14;;;;;;;2.25;0.43;;;14.60;57.00;;;;;;5483565;26;20078;-63
2024/04/11 00:48:40;;;;;;;3.08;0.82;;;14.50;57.00;;;;;;5481856;26;20034;-63
2024/04/11 00:51:09;;;;;;;3.78;0.43;;;14.60;57.00;;;;;;5483821;26;20341;-62
2024/04/11 00:53:35;;;;;;;2.85;0.80;;;14.50;57.00;;;;;;5471090;26;20010;-62
2024/04/11 00:56:01;;;;;;;1.25;0.40;;;14.50;57.00;;;;;;5473512;26;19999;-62
2024/04/11 00:58:28;;;;;;;1.23;0.70;;;14.50;57.00;;;;;;5483426;26;19998;-62
2024/04/11 01:00:54;;;;;;;4.65;1.55;;;14.50;57.00;;;;;;5480742;26;20016;-62
2024/04/11 01:03:21;;;;;;;1.38;0.30;;;14.50;56.90;;;;;;5483278;26;19998;-68
2024/04/11 01:05:47;;;;;;;0.73;0.40;;;14.50;57.00;;;;;;5453703;26;20074;-67
2024/04/11 01:08:14;;;;;;;2.85;0.75;;;14.60;57.00;;;;;;5451171;26;20002;-67
2024/04/11 01:10:40;;;;;;;3.40;0.98;;;14.60;56.90;;;;;;5482729;26;20002;-68
2024/04/11 01:13:06;;;;;;;0.50;0.43;;;14.60;56.90;;;;;;5483572;26;20065;-67
2024/04/11 01:15:37;;;;;;;0.57;0.20;;;14.60;56.90;;;;;;5480901;26;20061;-67
2024/04/11 01:18:03;;;;;;;0.43;0.40;;;14.60;56.90;;;;;;5483096;26;20013;-67
2024/04/11 01:20:29;;;;;;;1.10;0.50;;;14.60;56.90;;;;;;5483455;26;20341;-62
2024/04/11 01:22:55;;;;;;;1.05;0.28;;;14.60;57.00;;;;;;5481847;26;20069;-62
2024/04/11 01:25:21;;;;;;;3.20;0.40;;;14.50;57.00;;;;;;5482246;26;20010;-62
2024/04/11 01:27:51;;;;;;;7.32;0.57;;;14.50;57.00;;;;;;5477590;26;20034;-62
2024/04/11 01:30:17;;;;;;;4.68;0.70;;;14.50;57.10;;;;;;5466359;26;20018;-62
2024/04/11 01:32:43;;;;;;;3.33;0.30;;;14.60;57.20;;;;;;5480621;26;19998;-62
2024/04/11 01:35:09;;;;;;;6.95;1.70;;;14.60;57.00;;;;;;5481435;26;19999;-62
2024/04/11 01:37:35;;;;;;;3.25;0.60;;;14.60;57.10;;;;;;5482496;26;20521;-62
2024/04/11 01:40:02;;;;;;;0.55;0.32;;;14.60;57.30;;;;;;5483562;26;20009;-63
2024/04/11 01:42:28;;;;;;;0.98;0.40;;;14.50;57.30;;;;;;5482571;26;20407;-62
2024/04/11 01:44:55;;;;;;;1.27;0.50;;;14.60;57.40;;;;;;5482884;26;20021;-63
2024/04/11 01:47:21;;;;;;;0.30;0.30;;;14.60;57.30;;;;;;5479436;26;20015;-63
2024/04/11 01:49:47;;;;;;;1.08;0.80;;;14.60;57.30;;;;;;5480967;26;20088;-62
2024/04/11 01:52:13;;;;;;;1.35;0.30;;;14.60;57.30;;;;;;5481101;26;20017;-62
2024/04/11 01:54:40;;;;;;;1.27;0.50;;;14.60;57.30;;;;;;5478704;26;20453;-67
2024/04/11 01:57:07;;;;;;;1.40;0.50;;;14.60;57.30;;;;;;5474987;26;20010;-67
2024/04/11 01:59:33;;;;;;;1.00;0.70;;;14.60;57.40;;;;;;5470915;26;19998;-67
2024/04/11 02:02:03;;;;;;;0.50;0.50;;;14.60;57.60;;;;;;5482667;26;20506;-67
2024/04/11 02:04:30;;;;;;;2.83;0.52;;;14.60;57.50;;;;;;5482484;26;20026;-67
2024/04/11 02:06:57;;;;;;;1.92;0.30;;;14.60;57.50;;;;;;5482039;26;20010;-67
2024/04/11 02:09:26;;;;;;;1.27;0.57;;;14.60;57.50;;;;;;5482169;26;20010;-67
2024/04/11 02:11:53;;;;;;;2.13;0.60;;;14.60;57.50;;;;;;5474924;26;20399;-67
2024/04/11 02:14:20;;;;;;;0.93;0.30;;;14.60;57.70;;;;;;5481092;26;20459;-67
2024/04/11 02:16:46;;;;;;;0.50;0.43;;;14.60;57.80;;;;;;5478862;26;20526;-67
2024/04/11 02:19:12;;;;;;;1.17;0.25;;;14.60;57.70;;;;;;5479265;26;20437;-62
2024/04/11 02:21:41;;;;;;;1.33;0.50;;;14.60;57.70;;;;;;5480031;26;20010;-62
2024/04/11 02:24:16;;;;;;;0.55;0.55;;;14.70;57.70;;;;;;5482068;26;20009;-62
2024/04/11 02:26:47;;;;;;;1.27;0.60;;;14.70;57.80;;;;;;5478662;26;20002;-62
2024/04/11 02:29:17;;;;;;;0.93;0.60;;;14.70;57.90;;;;;;5480699;26;19999;-61
2024/04/11 02:31:46;;;;;;;0.75;0.47;;;14.70;58.50;;;;;;5486686;26;20010;-62
2024/04/11 02:34:12;;;;;;;0.40;0.40;;;14.70;57.80;;;;;;5481315;26;20008;-67
2024/04/11 02:36:38;;;;;;;0.68;0.52;;;14.70;57.80;;;;;;5484117;26;20034;-67
2024/04/11 02:39:12;;;;;;;3.55;0.50;;;14.70;57.80;;;;;;5484962;26;20090;-67
2024/04/11 02:41:38;;;;;;;0.30;0.30;;;14.70;57.90;;;;;;5485957;26;20598;-67
2024/04/11 02:44:04;;;;;;;1.33;0.40;;;14.70;58.00;;;;;;5452517;26;20038;-67
2024/04/11 02:46:31;;;;;;;0.43;0.43;;;14.70;58.10;;;;;;5485987;26;20012;-67
2024/04/11 02:48:57;;;;;;;1.60;0.40;;;14.60;58.10;;;;;;5483131;26;20006;-67
2024/04/11 02:51:23;;;;;;;0.60;0.50;;;14.60;58.10;;;;;;5477941;26;19998;-67
2024/04/11 02:53:50;;;;;;;1.25;0.55;;;14.70;58.20;;;;;;5483246;26;20436;-67
2024/04/11 02:56:16;;;;;;;13.20;0.55;;;14.70;58.30;;;;;;5479260;26;20017;-67
2024/04/11 02:58:43;;;;;;;4.50;1.02;;;14.70;58.10;;;;;;5483050;26;20352;-67
2024/04/11 03:01:10;;;;;;;0.60;0.50;;;14.70;58.10;;;;;;5482249;26;20043;-67
2024/04/11 03:03:37;;;;;;;0.57;0.35;;;14.70;58.00;;;;;;5478185;26;20002;-67
2024/04/11 03:06:21;;;;;;;3.08;0.50;;;14.70;58.00;;;;;;5481391;26;19994;-67
2024/04/11 03:08:58;;;;;;;0.30;0.30;;;14.70;58.00;;;;;;5479175;26;20014;-67
2024/04/11 03:11:24;;;;;;;1.98;0.52;;;14.70;58.00;;;;;;5484529;26;20425;-67
2024/04/11 03:13:58;;;;;;;1.73;0.50;;;14.70;57.90;;;;;;5479678;26;20353;-67
2024/04/11 03:16:30;;;;;;;5.47;0.60;;;14.70;57.90;;;;;;5481911;26;20014;-67
2024/04/11 03:18:57;;;;;;;1.55;0.57;;;14.70;57.90;;;;;;5469828;26;20010;-67
2024/04/11 03:21:24;;;;;;;1.77;0.57;;;14.70;58.00;;;;;;5472272;26;20002;-67
2024/04/11 03:23:50;;;;;;;1.55;0.70;;;14.60;58.00;;;;;;5483186;26;20010;-67
2024/04/11 03:26:16;;;;;;;1.08;0.52;;;14.60;58.00;;;;;;5479369;26;20012;-67
2024/04/11 03:28:42;;;;;;;2.78;0.70;;;14.70;58.10;;;;;;5471726;26;20469;-67
2024/04/11 03:31:10;;;;;;;0.60;0.40;;;14.60;58.00;;;;;;5481517;26;19994;-67
2024/04/11 03:33:37;;;;;;;0.40;0.30;;;14.70;58.10;;;;;;5477597;26;19994;-67
2024/04/11 03:36:10;;;;;;;0.50;0.50;;;14.70;58.20;;;;;;5476039;26;20002;-67
2024/04/11 03:38:37;;;;;;;0.82;0.38;;;14.70;58.20;;;;;;5476315;26;20002;-67
2024/04/11 03:41:05;;;;;;;2.40;0.30;;;14.60;58.10;;;;;;5464265;26;20013;-67
2024/04/11 03:43:35;;;;;;;2.90;0.75;;;14.70;58.20;;;;;;5479346;26;20474;-67
2024/04/11 03:46:05;;;;;;;0.65;0.50;;;14.70;58.30;;;;;;5472735;26;20013;-62
2024/04/11 03:48:31;;;;;;;5.93;1.33;;;14.70;58.30;;;;;;5481011;26;20002;-61
2024/04/11 03:50:57;;;;;;;3.22;1.13;;;14.70;58.30;;;;;;5479468;26;20445;-62
2024/04/11 03:53:23;;;;;;;2.42;0.52;;;14.70;58.30;;;;;;5479881;26;20081;-61
2024/04/11 03:55:49;;;;;;;1.15;0.32;;;14.70;58.30;;;;;;5475870;26;20096;-62
2024/04/11 03:58:16;;;;;;;1.70;0.68;;;14.70;58.40;;;;;;5477433;26;20540;-62
2024/04/11 04:00:46;;;;;;;3.45;0.43;;;14.70;58.40;;;;;;5482472;26;20014;-62
2024/04/11 04:03:12;;;;;;;3.03;1.33;;;14.70;58.40;;;;;;5474993;26;20017;-62
2024/04/11 04:05:39;;;;;;;1.98;0.60;;;14.70;58.50;;;;;;5470461;26;20006;-62
2024/04/11 04:08:05;;;;;;;0.95;0.65;;;14.70;58.50;;;;;;5482016;26;20074;-62
2024/04/11 04:10:34;;;;;;;0.75;0.52;;;14.70;58.60;;;;;;5479817;26;20013;-62
2024/04/11 04:13:01;;;;;;;1.02;0.77;;;14.70;58.70;;;;;;5475953;26;20099;-62
2024/04/11 04:15:28;;;;;;;2.60;0.70;;;14.60;58.70;;;;;;5475746;26;20030;-61
2024/04/11 04:17:57;;;;;;;1.25;0.40;;;14.70;58.90;;;;;;5482848;26;20021;-62
2024/04/11 04:20:23;;;;;;;1.50;0.70;;;14.70;58.90;;;;;;5486591;26;20001;-62
2024/04/11 04:22:49;;;;;;;2.90;1.15;;;14.70;58.90;;;;;;5495309;26;20015;-62
2024/04/11 04:25:16;;;;;;;0.80;0.38;;;14.70;58.90;;;;;;5490382;26;20090;-62
2024/04/11 04:27:44;;;;;;;2.78;0.50;;;14.70;59.10;;;;;;5494549;26;20006;-67
2024/04/11 04:30:12;;;;;;;0.60;0.40;;;14.70;59.20;;;;;;5490609;26;19998;-66
2024/04/11 04:32:38;;;;;;;0.68;0.40;;;14.70;59.30;;;;;;5477115;25;20081;-67
2024/04/11 04:35:09;;;;;;;0.68;0.52;;;14.70;59.40;;;;;;5490808;26;20320;-67
2024/04/11 04:37:36;;;;;;;4.20;0.82;;;14.60;59.40;;;;;;5490468;26;20012;-67
2024/04/11 04:40:03;;;;;;;0.75;0.50;;;14.60;59.60;;;;;;5487867;26;20073;-67
2024/04/11 04:42:29;;;;;;;3.53;0.77;;;14.60;59.80;;;;;;5485883;26;20012;-62
2024/04/11 04:44:55;;;;;;;0.75;0.75;;;14.60;59.80;;;;;;5452898;26;20034;-62
2024/04/11 04:47:28;;;;;;;0.95;0.40;;;14.60;59.80;;;;;;5481670;26;20013;-66
2024/04/11 04:49:59;;;;;;;1.85;0.40;;;14.60;59.90;;;;;;5482409;26;20428;-67
2024/04/11 04:52:25;;;;;;;1.50;0.22;;;14.60;60.00;;;;;;5474077;26;19998;-66
2024/04/11 04:54:51;;;;;;;2.60;1.05;;;14.60;60.20;;;;;;5478033;26;20106;-62
2024/04/11 04:57:19;;;;;;;1.27;0.60;;;14.60;60.20;;;;;;5482519;26;20029;-62
2024/04/11 04:59:45;;;;;;;0.55;0.30;;;14.60;60.30;;;;;;5480520;26;20357;-62
2024/04/11 05:02:11;;;;;;;1.75;0.40;;;14.60;60.40;;;;;;5473693;26;19998;-67
2024/04/11 05:04:39;;;;;;;0.43;0.30;;;14.50;60.60;;;;;;5468129;26;19999;-68
2024/04/11 05:07:08;;;;;;;0.57;0.30;;;14.60;60.70;;;;;;5478849;26;20795;-67
2024/04/11 05:09:38;;;;;;;2.40;0.40;;;14.60;60.80;;;;;;5483960;26;20026;-67
2024/04/11 05:12:07;;;;;;;1.52;0.47;;;14.60;60.80;;;;;;5480830;26;20002;-68
2024/04/11 05:14:38;;;;;;;0.63;0.40;;;14.60;61.10;;;;;;5483059;26;20002;-67
2024/04/11 05:17:08;;;;;;;2.70;0.88;;;14.50;61.20;;;;;;5473323;26;20014;-67
2024/04/11 05:19:34;;;;;;;2.42;0.73;;;14.50;61.40;;;;;;5481595;26;20012;-67
2024/04/11 05:22:00;;;;;;;0.55;0.52;;;14.50;61.60;;;;;;5483119;26;20009;-67
2024/04/11 05:24:26;;;;;;;3.67;1.15;;;14.50;61.60;;;;;;5474443;26;19999;-67
2024/04/11 05:26:52;;;;;;;0.30;0.30;;;14.50;61.70;;;;;;5480569;26;20468;-68
2024/04/11 05:29:18;;;;;;;0.73;0.55;;;14.50;61.60;;;;;;5472096;26;19998;-68
2024/04/11 05:31:45;;;;;;;1.85;0.40;;;14.60;61.60;;;;;;5481670;26;20471;-67
2024/04/11 05:34:13;;;;;;;3.05;0.40;;;14.60;61.80;;;;;;5483235;26;20013;-67
2024/04/11 05:36:41;;;;;;;0.60;0.60;;;14.50;62.00;;;;;;5481260;26;20002;-67
2024/04/11 05:39:09;;;;;;;0.75;0.60;;;14.50;62.20;;;;;;5479821;26;20454;-67
2024/04/11 05:41:35;;;;;;;1.83;0.50;;;14.50;62.30;;;;;;5465222;26;20525;-67
2024/04/11 05:44:01;;;;;;;2.47;0.95;;;14.50;62.40;;;;;;5480508;26;20007;-67
2024/04/11 05:46:28;;;;;;;0.57;0.47;;;14.50;62.50;;;;;;5480117;26;19998;-67
2024/04/11 05:48:53;;;;;;;1.17;0.82;;;14.60;62.50;;;;;;5482271;26;20348;-64
2024/04/11 05:51:20;;;;;;;2.17;1.05;;;14.60;62.60;;;;;;5478646;26;20038;-63
2024/04/11 05:53:47;;;;;;;3.42;0.82;;;14.60;62.60;;;;;;5463858;26;20006;-63
2024/04/11 05:56:13;;;;;;;0.75;0.50;;;14.60;62.80;;;;;;5482245;26;20448;-62
2024/04/11 05:58:40;;;;;;;0.80;0.50;;;14.60;62.80;;;;;;5449431;26;20070;-62
2024/04/11 06:01:10;;;;;;;1.45;0.30;;;14.60;62.80;;;;;;5471503;26;20017;-63
2024/04/11 06:03:40;;;;;;;3.45;0.65;;;14.70;62.90;;;;;;5485758;26;20317;-62
2024/04/11 06:06:13;;;;;;;4.53;0.80;;;14.70;63.00;;;;;;5485867;26;19998;-63
2024/04/11 06:08:40;;;;;;;0.70;0.30;;;14.70;63.10;;;;;;5481194;26;20013;-62
2024/04/11 06:11:06;;;;;;;0.75;0.60;;;14.70;63.10;;;;;;5479433;26;20010;-62
2024/04/11 06:13:32;;;;;;;2.55;0.70;;;14.70;63.10;;;;;;5475576;26;19998;-66
2024/04/11 06:15:59;;;;;;;1.40;0.93;;;14.70;63.20;;;;;;5486394;26;20401;-67
2024/04/11 06:18:28;;;;;;;4.95;0.70;;;14.70;63.30;;;;;;5479129;26;19997;-67
2024/04/11 06:20:55;;;;;;;3.20;1.15;;;14.70;63.30;;;;;;5486255;26;20010;-67
2024/04/11 06:23:21;;;;;;;2.10;0.43;;;14.70;63.40;;;;;;5485579;26;19998;-67
2024/04/11 06:25:47;;;;;;;0.57;0.45;;;14.70;63.50;;;;;;5485980;26;20013;-67
2024/04/11 06:28:15;;;;;;;0.70;0.65;;;14.70;63.60;;;;;;5477266;26;19994;-67
2024/04/11 06:30:42;;;;;;;3.58;0.93;;;14.80;63.90;;;;;;5492503;26;20030;-67
2024/04/11 06:33:11;;;;;;;1.13;0.40;;;14.70;64.10;;;;;;5486157;26;20002;-67
2024/04/11 06:35:37;;;;;;;0.68;0.32;;;14.70;64.40;;;;;;5455247;26;20010;-67
2024/04/11 06:38:07;;;;;;;1.52;0.40;;;14.70;64.60;;;;;;5485332;26;19998;-67
2024/04/11 06:40:32;;;;;;;1.83;0.57;;;14.70;64.90;;;;;;5485556;26;20002;-67
2024/04/11 06:42:59;;;;;;;2.30;0.90;;;14.70;65.40;;;;;;5475679;26;20043;-67
2024/04/11 06:45:25;;;;;;;2.65;0.82;;;14.60;65.90;;;;;;5471009;26;20006;-67
2024/04/11 06:47:52;;;;;;;0.40;0.30;;;14.60;66.40;;;;;;5482555;26;19998;-67
2024/04/11 06:50:20;;;;;;;1.45;0.70;;;14.50;66.60;;;;;;5484053;26;20081;-67
2024/04/11 06:52:47;;;;;;;3.83;0.77;;;14.50;66.90;;;;;;5482147;26;20010;-63
2024/04/11 06:55:14;;;;;;;0.45;0.45;;;14.50;67.40;;;;;;5482846;26;20002;-67
2024/04/11 06:57:44;;;;;;;2.33;0.70;;;14.40;67.40;;;;;;5482240;26;20002;-67
2024/04/11 07:00:35;;;;;;;0.63;0.63;;;14.50;67.70;;;;;;5472433;26;20010;-67
2024/04/11 07:03:16;;;;;;;1.75;0.70;;;14.40;68.30;;;;;;5491692;25;19994;-67
2024/04/11 07:05:59;;;;;;;1.02;0.90;;;14.40;68.40;;;;;;5485844;26;20350;-68
2024/04/11 07:08:30;;;;;;;0.70;0.32;;;14.40;68.60;;;;;;5481274;26;20035;-68
2024/04/11 07:11:08;;;;;;;1.15;1.05;;;14.30;68.60;;;;;;5485242;26;20025;-68
2024/04/11 07:13:34;;;;;;;0.70;0.47;;;14.30;69.10;;;;;;5468108;26;19998;-68
2024/04/11 07:16:01;;;;;;;3.22;0.95;;;14.30;69.30;;;;;;5482648;26;20009;-68
2024/04/11 07:18:38;;;;;;;0.57;0.40;;;14.30;69.40;;;;;;5482523;26;19995;-68
2024/04/11 07:21:07;;;;;;;0.75;0.40;;;14.40;69.50;;;;;;5479366;26;20433;-68
2024/04/11 07:23:33;;;;;;;2.92;0.50;;;14.40;69.60;;;;;;5467343;26;20103;-68
2024/04/11 07:25:58;;;;;;;0.55;0.50;;;14.30;69.80;;;;;;5485212;26;20018;-68
2024/04/11 07:28:24;;;;;;;1.10;0.90;;;14.30;70.10;;;;;;5481589;26;20006;-68
2024/04/11 07:30:50;;;;;;;1.20;0.40;;;14.30;70.30;;;;;;5485864;26;20412;-67
2024/04/11 07:33:16;;;;;;;1.48;0.82;;;14.30;70.60;;;;;;5477772;26;19998;-68
2024/04/11 07:35:43;;;;;;;0.60;0.60;;;14.30;70.80;;;;;;5471736;26;20002;-68
2024/04/11 07:38:08;;;;;;;3.15;0.55;;;14.30;71.10;;;;;;5482777;26;20430;-69
2024/04/11 07:40:45;;;;;;;4.57;1.15;;;14.30;71.30;;;;;;5483604;26;20013;-68
2024/04/11 07:43:13;;;;;;;1.83;1.13;;;14.30;71.50;;;;;;5468152;26;20006;-68
2024/04/11 07:45:42;;;;;;;2.50;0.60;;;14.30;71.80;;;;;;5485161;26;20013;-69
2024/04/11 07:48:08;;;;;;;2.55;0.60;;;14.30;71.90;;;;;;5485199;26;20025;-69
2024/04/11 07:50:38;;;;;;;2.70;0.50;;;14.30;71.90;;;;;;5447477;26;19998;-69
2024/04/11 07:53:07;;;;;;;0.57;0.40;;;14.30;72.10;;;;;;5480096;26;20008;-69
2024/04/11 07:55:36;;;;;;;1.60;0.88;;;14.30;72.20;;;;;;5471417;26;20425;-70
2024/04/11 07:58:05;;;;;;;1.52;0.77;;;14.30;72.50;;;;;;5437657;26;20339;-68
2024/04/11 08:00:47;;;;;;;2.80;0.82;;;14.30;72.80;;;;;;5492594;26;20554;-69
2024/04/11 08:03:17;;;;;;;2.10;0.82;;;14.20;73.00;;;;;;5497834;26;20002;-68
2024/04/11 08:05:49;;;;;;;2.40;0.63;;;14.20;73.30;;;;;;5478674;26;19999;-68
2024/04/11 08:08:20;;;;;;;2.25;0.65;;;14.20;73.40;;;;;;5473997;26;20013;-68
2024/04/11 08:10:49;;;;;;;1.45;0.60;;;14.20;73.50;;;;;;5481030;26;20031;-67
2024/04/11 08:13:18;;;;;;;2.80;0.50;;;14.30;73.50;;;;;;5469832;26;20442;-63
2024/04/11 08:15:44;;;;;;;1.67;0.90;;;14.30;73.50;;;;;;5474232;26;20074;-63
2024/04/11 08:18:11;;;;;;;1.77;0.52;;;14.40;73.60;;;;;;5493897;26;20424;-63
2024/04/11 08:20:36;;;;;;;1.08;0.50;;;14.30;73.60;;;;;;5480138;26;20354;-63
2024/04/11 08:23:04;;;;;;;2.72;0.45;;;14.40;73.80;;;;;;5476325;26;20029;-63
2024/04/11 08:25:29;;;;;;;2.53;0.60;;;14.40;73.80;;;;;;5489872;26;20016;-62
2024/04/11 08:27:56;;;;;;;3.08;0.80;;;14.50;73.70;;;;;;5481745;26;20682;-63
2024/04/11 08:30:22;;;;;;;3.72;0.77;;;14.50;73.70;;;;;;5490714;26;20013;-63
2024/04/11 08:32:48;;;;;;;1.45;0.95;;;14.50;73.70;;;;;;5494788;26;19998;-63
2024/04/11 08:35:17;;;;;;;3.10;0.70;;;14.50;73.80;;;;;;5470005;26;20329;-63
2024/04/11 08:37:52;;;;;;;1.95;0.90;;;14.40;74.20;;;;;;5479400;26;20011;-63
2024/04/11 08:40:21;;;;;;;1.08;0.52;;;14.40;74.30;;;;;;5481374;26;20083;-63
2024/04/11 08:42:50;;;;;;;2.15;0.70;;;14.40;74.40;;;;;;5478761;26;19998;-63
2024/04/11 08:45:17;;;;;;;6.90;1.15;;;14.40;74.40;;;;;;5483169;26;20369;-63
2024/04/11 08:47:46;;;;;;;3.00;0.40;;;14.50;74.30;;;;;;5472693;26;20378;-63
2024/04/11 08:50:12;;;;;;;1.02;0.70;;;14.50;74.30;;;;;;5480130;26;20013;-63
2024/04/11 08:52:44;;;;;;;0.70;0.60;;;14.50;74.30;;;;;;5474331;26;20034;-63
2024/04/11 08:55:12;;;;;;;3.17;1.02;;;14.50;74.40;;;;;;5474688;26;20029;-63
2024/04/11 08:57:38;;;;;;;1.77;0.95;;;14.60;74.70;;;;;;5492707;26;19998;-63
2024/04/11 09:00:12;;;;;;;1.83;0.70;;;14.50;74.70;;;;;;5488613;26;20500;-63
2024/04/11 09:02:44;;;;;;;1.58;0.60;;;14.60;74.80;;;;;;5506002;25;20010;-63
2024/04/11 09:05:14;;;;;;;3.08;0.95;;;14.60;74.80;;;;;;5487678;26;20012;-63
2024/04/11 09:07:42;;;;;;;3.00;1.02;;;14.60;74.80;;;;;;5482107;26;20020;-63
2024/04/11 09:10:09;;;;;;;1.88;1.25;;;14.60;75.00;;;;;;5487805;26;20018;-63
2024/04/11 09:12:34;;;;;;;8.18;1.00;;;14.60;75.10;;;;;;5485182;26;20008;-64
2024/04/11 09:15:07;;;;;;;1.10;0.47;;;14.60;75.10;;;;;;5426703;26;19999;-63
2024/04/11 09:17:40;;;;;;;1.80;0.88;;;14.70;75.20;;;;;;5482747;26;20016;-63
2024/04/11 09:20:12;;;;;;;1.27;0.50;;;14.70;75.20;;;;;;5481496;26;20010;-62
2024/04/11 09:22:51;;;;;;;1.33;1.23;;;14.70;75.00;;;;;;5477353;26;20091;-63
2024/04/11 09:25:25;;;;;;;2.00;0.70;;;14.80;75.20;;;;;;5487820;26;20002;-63
2024/04/11 09:27:58;;;;;;;1.77;0.77;;;14.90;75.20;;;;;;5470637;26;20110;-68
2024/04/11 09:30:29;;;;;;;0.82;0.70;;;14.90;75.30;;;;;;5487816;26;19998;-69
2024/04/11 09:32:59;;;;;;;1.00;0.35;;;14.90;75.10;;;;;;5486476;26;20006;-69
2024/04/11 09:35:28;;;;;;;1.33;0.68;;;15.00;75.20;;;;;;5478811;26;20416;-69
2024/04/11 09:37:59;;;;;;;1.88;0.90;;;15.00;75.30;;;;;;5475741;26;20542;-68
2024/04/11 09:40:27;;;;;;;2.60;0.90;;;15.10;75.30;;;;;;5473428;26;20010;-69
2024/04/11 09:43:03;;;;;;;2.47;1.00;;;15.10;75.50;;;;;;5492547;26;20097;-68
2024/04/11 09:45:37;;;;;;;2.25;1.13;;;15.10;75.60;;;;;;5495844;26;20456;-69
2024/04/11 09:48:04;;;;;;;0.63;0.57;;;15.10;75.70;;;;;;5482972;26;20585;-69
2024/04/11 09:50:30;;;;;;;3.33;1.67;;;15.20;75.60;;;;;;5467086;26;20074;-69
2024/04/11 09:53:00;;;;;;;3.42;0.95;;;15.30;75.60;;;;;;5465721;26;20021;-69
2024/04/11 09:55:36;;;;;;;4.00;1.55;;;15.30;75.60;;;;;;5471494;26;20002;-69
2024/04/11 09:58:04;;;;;;;5.40;1.30;;;15.30;75.90;;;;;;5473743;26;20002;-69
2024/04/11 10:01:04;;;;;;;2.15;0.80;;;15.20;75.90;;;;;;5462386;26;20002;-69
2024/04/11 10:03:39;;;;;;;2.65;0.77;;;15.20;75.90;;;;;;5439289;26;20021;-68
2024/04/11 10:06:13;;;;;;;0.73;0.60;;;15.30;75.70;;;;;;5463026;26;20070;-68
2024/04/11 10:08:42;;;;;;;1.67;1.08;;;15.40;75.70;;;;;;5461245;26;20009;-69
2024/04/11 10:11:12;;;;;;;1.52;1.20;;;15.40;75.70;;;;;;5475269;26;19990;-69
2024/04/11 10:13:42;;;;;;;2.33;1.00;;;15.40;76.00;;;;;;5470419;26;20020;-69
2024/04/11 10:16:21;;;;;;;2.67;1.52;;;15.40;76.00;;;;;;5475968;26;20445;-68
2024/04/11 10:19:04;;;;;;;2.92;1.55;;;15.40;76.30;;;;;;5467405;26;20405;-69
2024/04/11 10:21:32;;;;;;;1.35;1.13;;;15.30;76.50;;;;;;5476415;26;20076;-69
2024/04/11 10:23:58;;;;;;;1.30;0.98;;;15.30;76.60;;;;;;5476034;26;20007;-68
2024/04/11 10:26:34;;;;;;;3.08;1.23;;;15.40;77.10;;;;;;5466276;26;20021;-69
2024/04/11 10:29:19;;;;;;;2.80;0.93;;;15.30;77.10;;;;;;5476050;26;20010;-68
2024/04/11 10:31:47;;;;;;;1.95;1.42;;;15.40;77.00;;;;;;5472388;26;20002;-69
2024/04/11 10:34:19;;;;;;;4.60;2.05;;;15.30;77.40;;;;;;5484275;26;20002;-63
2024/04/11 10:36:54;;;;;;;1.80;1.45;;;15.30;78.00;;;;;;5489336;26;20071;-64
2024/04/11 10:39:21;;;;;;;3.10;2.17;;;15.30;78.20;;;;;;5478908;26;20002;-63
2024/04/11 10:41:51;;;;;;;3.03;1.40;;;15.30;78.60;;;;;;5488206;26;20017;-63
2024/04/11 10:44:20;;;;;;;2.58;1.73;;;15.30;78.70;;;;;;5481002;26;20034;-64
2024/04/11 10:46:46;;;;;;;4.32;2.50;;;15.40;78.60;;;;;;5480340;26;20002;-64
2024/04/11 10:49:15;;;;;;;3.35;1.67;;;15.30;78.70;;;;;;5480384;26;20002;-64
2024/04/11 10:51:42;;;;;;;4.97;1.83;;;15.40;79.30;;;;;;5498674;26;20433;-63
2024/04/11 10:54:11;;;;;;;2.33;1.50;;;15.30;79.60;;;;;;5483620;26;19994;-64
2024/04/11 10:56:41;;;;;;;6.28;1.95;;;15.30;79.90;;;;;;5476110;26;20047;-63
2024/04/11 10:59:17;;;;;;;3.00;2.10;;;15.20;80.00;;;;;;5476221;26;20449;-63
2024/04/11 11:01:47;;;;;;;3.28;2.25;;;15.20;80.30;;;;;;5465152;26;20006;-63
2024/04/11 11:04:15;;;;;;;5.82;1.90;;;15.30;80.30;;;;;;5477457;26;20509;-64
2024/04/11 11:06:47;;;;;;;3.42;1.85;;;15.30;80.50;;;;;;5491054;26;19998;-63
2024/04/11 11:09:17;;;;;;;5.50;2.80;;;15.30;80.50;;;;;;5484899;26;20329;-64
2024/04/11 11:11:44;;;;;;;5.88;2.55;;;15.30;80.90;;;;;;5486111;26;19999;-63
2024/04/11 11:14:17;;;;;;;5.72;2.65;;;15.40;81.10;;;;;;5484111;26;20359;-63
2024/04/11 11:16:44;;;;;;;2.20;1.50;;;15.30;81.30;;;;;;5478875;26;20075;-61
2024/04/11 11:19:16;;;;;;;2.92;1.80;;;15.30;81.20;;;;;;5482851;26;20669;-62
2024/04/11 11:21:46;;;;;;;2.10;1.83;;;15.30;81.30;;;;;;5485495;26;20034;-62
2024/04/11 11:24:15;;;;;;;4.43;1.45;;;15.40;81.40;;;;;;5484482;26;20034;-63
2024/04/11 11:26:46;;;;;;;2.97;1.77;;;15.40;81.50;;;;;;5484625;26;20014;-63
2024/04/11 11:29:19;;;;;;;5.47;2.35;;;15.40;81.50;;;;;;5476195;26;20002;-62
2024/04/11 11:31:50;;;;;;;3.08;2.13;;;15.40;81.70;;;;;;5481044;26;20521;-63
2024/04/11 11:34:16;;;;;;;2.50;1.55;;;15.40;81.70;;;;;;5464439;26;20877;-63
2024/04/11 11:36:47;;;;;;;4.63;1.98;;;15.40;81.80;;;;;;5496056;26;20432;-63
2024/04/11 11:39:18;;;;;;;2.08;1.45;;;15.40;81.80;;;;;;5486450;26;20526;-63
2024/04/11 11:41:48;;;;;;;3.20;1.77;;;15.30;82.10;;;;;;5491034;26;20493;-63
2024/04/11 11:44:18;;;;;;;5.75;1.85;;;15.30;82.40;;;;;;5480573;26;20470;-63
2024/04/11 11:46:49;;;;;;;3.83;1.92;;;15.30;82.60;;;;;;5479382;26;20017;-63
2024/04/11 11:49:17;;;;;;;2.28;1.75;;;15.40;82.60;;;;;;5486306;25;20012;-68
2024/04/11 11:51:45;;;;;;;2.05;1.83;;;15.40;82.70;;;;;;5484325;26;20123;-68
2024/04/11 11:54:13;;;;;;;3.22;2.10;;;15.40;82.80;;;;;;5482030;26;20010;-67
2024/04/11 11:56:40;;;;;;;3.10;1.88;;;15.40;83.10;;;;;;5479950;26;20110;-68
2024/04/11 11:59:06;;;;;;;4.68;2.60;;;15.40;83.30;;;;;;5471405;26;20034;-68
2024/04/11 12:01:35;;;;;;;3.30;1.92;;;15.50;83.30;;;;;;5471695;26;20408;-67
2024/04/11 12:04:02;;;;;;;2.97;1.73;;;15.50;83.30;;;;;;5451174;26;20002;-68
2024/04/11 12:06:37;;;;;;;3.42;2.22;;;15.50;83.30;;;;;;5483445;26;20017;-67
2024/04/11 12:09:11;;;;;;;2.92;1.92;;;15.50;83.40;;;;;;5472024;26;20001;-68
2024/04/11 12:12:43;;;;;;;3.17;2.03;;;15.60;83.40;;;;;;5473362;26;20020;-67
2024/04/11 12:14:42;;;;;;;3.95;1.90;;;15.60;83.30;;;;;;5472827;26;19994;-68
2024/04/11 12:17:14;;;;;;;4.45;2.70;;;15.60;83.20;;;;;;5480544;26;20008;-68
2024/04/11 12:19:41;;;;;;;3.45;2.53;;;15.60;83.20;;;;;;5483075;26;20437;-67
2024/04/11 12:22:16;;;;;;;4.00;2.47;;;15.70;83.40;;;;;;5480026;26;20007;-63
2024/04/11 12:24:45;;;;;;;1.30;1.10;;;15.70;83.40;;;;;;5467402;26;20007;-63
2024/04/11 12:27:13;;;;;;;2.05;1.52;;;15.80;83.20;;;;;;5478688;26;20094;-63
2024/04/11 12:29:43;;;;;;;3.00;2.08;;;15.80;83.00;;;;;;5471699;26;20021;-68
2024/04/11 12:32:13;;;;;;;3.08;2.40;;;15.90;82.90;;;;;;5482192;26;20358;-63
2024/04/11 12:34:42;;;;;;;3.80;1.95;;;15.90;82.90;;;;;;5495142;26;20336;-63
2024/04/11 12:37:16;;;;;;;5.10;2.40;;;15.90;82.90;;;;;;5488591;25;19998;-63
2024/04/11 12:39:53;;;;;;;3.63;2.42;;;15.90;83.20;;;;;;5488423;26;20079;-63
2024/04/11 12:42:22;;;;;;;3.35;2.42;;;15.90;83.60;;;;;;5461538;26;20567;-68
2024/04/11 12:44:55;;;;;;;4.10;2.53;;;15.80;83.90;;;;;;5471341;26;20012;-68
2024/04/11 12:47:38;;;;;;;2.80;1.98;;;15.80;83.90;;;;;;5463373;26;20010;-63
2024/04/11 12:50:12;;;;;;;3.88;2.13;;;15.80;84.00;;;;;;5475158;26;19998;-63
2024/04/11 12:52:44;;;;;;;4.25;2.55;;;15.90;83.90;;;;;;5476221;26;20017;-63
2024/04/11 12:55:11;;;;;;;4.15;2.38;;;15.90;83.70;;;;;;5474129;26;20026;-63
2024/04/11 12:57:37;;;;;;;3.00;2.00;;;16.00;83.80;;;;;;5470781;26;19998;-63